CYFB

Iqaluit Airport

Iqaluit, Canada
METAR CYFB 201700Z 14003KT 120V180 30SM FEW015 FEW057 SCT160 M08/M10 A2979 RMK SC1SC2AS2 SC TR SLP093
Observed Flight Rules
Oct-20 @ 17:00 UTC (24 minutes ago) Visual Flight Rules
Wind Visibility Clouds
140° at 3 knots 30 miles
  • Few at 1,500' AGL
  • Few at 5,700' AGL
  • Scattered at 16,000' AGL
Temperatures Readings
Current -8°C / 18°F
Dewpoint -10°C / 14°F
Humidity 86%
Altimeter 29.79" Hg
Pressure 1009.3 hPa
Elevation 34
METAR CYFB 201700Z 14003KT 120V180 30SM FEW015 FEW057 SCT160 M08/M10 A2979 RMK SC1SC2AS2 SC TR SLP093
Observed Flight Rules
Oct-20 @ 17:00 UTC
(24 minutes ago)
VFR
Wind Visibility
140° at 3 knots 30 miles
Clouds
  • Few at 1,500' AGL
  • Few at 5,700' AGL
  • Scattered at 16,000' AGL
Temperature Dewpoint
-8°C / 18°F -10°C / 14°F
Humidity Altimeter Pressure
86% 29.79" Hg 1009.3 hPa